Moundville, Missouri
Current Conditions -  °F | °C
As of 6:15 AM on Friday 24 Oct 2014 (Local Time) from KPTS Reporting Station
Clear Clear  
Wind Chill: 54°   Ceiling: Unl
Heat Index: 54°   Visibility: 7mi
Dew Point: 54°   Wind: 3mph
Humidity: 100%   Direction: 190°S
Pressure: 30.09"   Gusts: NA
Location:  37.76°N, 94.45°W
Report Text: KPTS 241115Z AUTO 19003KT 7SM CLR 12/12 A3009 RMK AO2 T01200120
Loading
Personal Weather Stations






























Interactive Weather Map
Tropical Storm Tracking
New forecast layout! Learn more

10-Day Weather Forecast

Advertisements
Track Severe Weather on mobile